createdAt,value
2023-03-02T06:49:14.251Z,81.82
2023-03-02T06:52:05.990Z,81.82
2023-03-02T06:54:52.486Z,83.62
2023-03-02T06:57:37.939Z,83.70
2023-03-02T07:00:28.442Z,84.04
2023-03-02T07:03:22.448Z,84.18
2023-03-02T07:06:08.505Z,84.06
2023-03-02T07:08:54.289Z,83.91
2023-03-02T07:11:40.087Z,83.75
2023-03-02T07:14:25.578Z,83.51
2023-03-02T07:17:10.913Z,82.95
2023-03-02T07:19:56.209Z,83.23
2023-03-02T07:22:41.716Z,82.87
2023-03-02T07:25:27.389Z,82.47
2023-03-02T07:28:13.114Z,83.08
2023-03-02T07:30:58.279Z,82.92
2023-03-02T07:33:43.918Z,82.70
2023-03-02T07:36:30.196Z,82.99
2023-03-02T07:39:20.816Z,83.14
2023-03-02T07:42:08.878Z,82.45
2023-03-02T07:44:54.508Z,81.96
2023-03-02T07:47:40.260Z,81.74
2023-03-02T07:50:25.881Z,81.50
2023-03-02T07:53:11.336Z,81.27
2023-03-02T07:55:56.656Z,81.09
2023-03-02T07:58:42.318Z,80.93
2023-03-02T08:01:27.530Z,81.47
2023-03-02T08:04:13.396Z,81.58
2023-03-02T08:07:01.179Z,81.98
2023-03-02T08:09:46.708Z,81.84
2023-03-02T08:12:32.127Z,82.52
2023-03-02T08:15:17.579Z,82.42
2023-03-02T08:18:04.435Z,82.45
2023-03-02T08:20:49.806Z,82.15
2023-03-02T08:23:35.072Z,81.81
2023-03-02T08:26:21.045Z,82.20
2023-03-02T08:29:07.055Z,82.32
2023-03-02T08:31:52.258Z,82.21
2023-03-02T08:34:37.998Z,82.50
2023-03-02T08:37:23.324Z,81.86
2023-03-02T08:40:09.678Z,81.29
2023-03-02T08:42:57.375Z,81.33
2023-03-02T08:45:42.661Z,81.07
2023-03-02T08:48:29.573Z,80.92
2023-03-02T08:51:19.730Z,80.99
2023-03-02T08:54:07.084Z,81.06
2023-03-02T08:56:53.216Z,81.37
2023-03-02T08:59:40.039Z,82.25
2023-03-02T09:02:25.578Z,82.10
2023-03-02T09:05:14.064Z,82.76
2023-03-02T09:08:05.049Z,82.73
2023-03-02T09:10:50.025Z,82.36
2023-03-02T09:13:35.452Z,82.09
2023-03-02T09:16:24.091Z,81.99
2023-03-02T09:19:10.744Z,81.85
2023-03-02T09:21:55.956Z,81.76
2023-03-02T09:24:42.443Z,81.71
2023-03-02T09:27:28.460Z,80.97
2023-03-02T09:30:20.229Z,81.01
2023-03-02T09:33:07.135Z,80.95
2023-03-02T09:35:53.193Z,80.60
2023-03-02T09:38:38.984Z,80.32
2023-03-02T09:41:56.804Z,80.26
2023-03-02T09:44:53.249Z,80.29
2023-03-02T09:47:47.827Z,80.83
2023-03-02T09:50:37.933Z,80.60
2023-03-02T09:53:37.824Z,80.20
2023-03-02T09:56:24.473Z,80.54
2023-03-02T09:59:16.400Z,80.97
2023-03-02T10:02:19.899Z,81.08
2023-03-02T10:05:08.877Z,81.12
2023-03-02T10:07:54.529Z,81.36
2023-03-02T10:10:46.342Z,81.37
2023-03-02T10:13:37.257Z,81.53
2023-03-02T10:16:35.339Z,81.24
2023-03-02T10:19:32.447Z,81.35
2023-03-02T10:22:26.313Z,81.62
2023-03-02T10:25:20.493Z,81.11
2023-03-02T10:28:13.441Z,80.86
2023-03-02T10:31:11.086Z,81.00
2023-03-02T10:33:57.365Z,81.36
2023-03-02T10:36:45.044Z,81.19
2023-03-02T10:39:30.353Z,81.40
2023-03-02T10:42:22.928Z,81.64
2023-03-02T10:45:26.437Z,81.97
2023-03-02T10:48:14.538Z,82.22
2023-03-02T10:51:00.803Z,82.30
2023-03-02T10:53:46.370Z,81.98
2023-03-02T10:56:32.289Z,81.67
2023-03-02T10:59:43.239Z,81.51
2023-03-02T11:02:33.508Z,81.88
2023-03-02T11:05:27.893Z,82.29
2023-03-02T11:08:21.887Z,82.56
2023-03-02T11:11:21.910Z,82.33
2023-03-02T11:14:19.543Z,82.62
2023-03-02T11:17:33.363Z,81.98
2023-03-02T11:20:25.460Z,82.01
2023-03-02T11:23:32.011Z,82.52
2023-03-02T11:26:26.478Z,82.60
2023-03-02T11:29:24.789Z,82.65
2023-03-02T11:32:17.559Z,82.31
2023-03-02T11:35:33.284Z,82.96
2023-03-02T11:38:23.938Z,83.47
2023-03-02T11:41:30.224Z,83.27
2023-03-02T11:44:18.360Z,82.71
2023-03-02T11:47:03.832Z,82.65
2023-03-02T11:49:54.914Z,82.35
2023-03-02T11:52:45.093Z,82.20
2023-03-02T11:55:34.450Z,82.50
2023-03-02T11:58:22.830Z,82.96
2023-03-02T12:01:11.278Z,83.22
2023-03-02T12:04:11.662Z,83.68
2023-03-02T12:06:57.121Z,83.77
2023-03-02T12:09:43.119Z,83.70
2023-03-02T12:12:46.583Z,83.36
2023-03-02T12:15:47.568Z,83.21
2023-03-02T12:18:51.948Z,83.62
2023-03-02T12:22:01.079Z,83.09
2023-03-02T12:24:46.747Z,82.78
2023-03-02T12:27:38.111Z,83.03
2023-03-02T12:30:27.369Z,84.03
2023-03-02T12:33:21.082Z,83.87
